createdAt,value
2023-02-25T00:01:08.449Z,99.90
2023-02-25T00:03:36.528Z,99.90
2023-02-25T00:06:04.758Z,99.90
2023-02-25T00:08:31.629Z,99.90
2023-02-25T00:11:03.484Z,99.90
2023-02-25T00:13:30.711Z,99.90
2023-02-25T00:16:00.205Z,99.90
2023-02-25T00:18:28.122Z,99.90
2023-02-25T00:20:54.880Z,99.90
2023-02-25T00:23:21.637Z,99.90
2023-02-25T00:25:48.332Z,99.90
2023-02-25T00:28:15.319Z,99.90
2023-02-25T00:30:42.750Z,99.90
2023-02-25T00:33:11.524Z,99.90
2023-02-25T00:35:41.238Z,99.90
2023-02-25T00:38:15.683Z,99.90
2023-02-25T00:40:45.097Z,99.90
2023-02-25T00:43:11.861Z,99.90
2023-02-25T00:45:42.344Z,99.90
2023-02-25T00:48:09.012Z,99.90
2023-02-25T00:50:36.306Z,99.90
2023-02-25T00:53:03.236Z,99.90
2023-02-25T00:55:33.443Z,99.90
2023-02-25T00:58:03.681Z,99.90
2023-02-25T01:00:35.952Z,99.90
2023-02-25T01:03:07.488Z,99.90
2023-02-25T01:05:34.206Z,99.90
2023-02-25T01:08:00.973Z,99.90
2023-02-25T01:10:28.401Z,99.90
2023-02-25T01:12:55.056Z,99.90
2023-02-25T01:15:21.745Z,99.90
2023-02-25T01:17:48.410Z,99.90
2023-02-25T01:20:19.883Z,99.90
2023-02-25T01:22:46.612Z,99.90
2023-02-25T01:25:16.201Z,99.90
2023-02-25T01:27:43.377Z,99.90
2023-02-25T01:30:11.830Z,99.90
2023-02-25T01:32:38.829Z,99.90
2023-02-25T01:35:05.750Z,99.90
2023-02-25T01:37:32.434Z,99.90
2023-02-25T01:39:59.084Z,99.90
2023-02-25T01:42:25.758Z,99.90
2023-02-25T01:45:22.206Z,99.90
2023-02-25T01:47:57.655Z,99.90
2023-02-25T01:50:27.133Z,99.90
2023-02-25T01:52:59.091Z,99.90
2023-02-25T01:55:25.932Z,99.90
2023-02-25T01:57:52.632Z,99.90
2023-02-25T02:00:19.673Z,99.90
2023-02-25T02:02:49.265Z,99.90
2023-02-25T02:05:16.500Z,99.90
2023-02-25T02:07:43.175Z,99.90
2023-02-25T02:10:10.585Z,99.90
2023-02-25T02:12:43.985Z,99.90
2023-02-25T02:15:13.756Z,99.90
2023-02-25T02:17:57.216Z,99.90
2023-02-25T02:20:32.232Z,99.90
2023-02-25T02:23:36.826Z,99.90
2023-02-25T02:26:33.226Z,99.90
2023-02-25T02:29:18.343Z,99.90
2023-02-25T02:32:04.211Z,99.90
2023-02-25T02:34:54.596Z,99.90
2023-02-25T02:37:58.637Z,99.90
2023-02-25T02:40:25.211Z,99.90
2023-02-25T02:42:55.302Z,99.90
2023-02-25T02:45:43.618Z,99.90
2023-02-25T02:48:15.951Z,99.90
2023-02-25T02:50:50.563Z,99.90
2023-02-25T02:53:23.227Z,99.90
2023-02-25T02:55:56.089Z,99.90
2023-02-25T02:58:31.738Z,99.90
2023-02-25T03:01:11.682Z,99.90
2023-02-25T03:03:47.060Z,99.90
2023-02-25T03:06:30.457Z,99.90
2023-02-25T03:09:07.569Z,99.90
2023-02-25T03:11:35.077Z,99.90
2023-02-25T03:14:02.155Z,99.90
2023-02-25T03:16:38.121Z,99.90
2023-02-25T03:19:35.122Z,99.90
2023-02-25T03:22:07.159Z,99.90
2023-02-25T03:24:41.992Z,99.90
2023-02-25T03:27:41.506Z,99.90
2023-02-25T03:30:34.615Z,99.90
2023-02-25T03:33:07.976Z,99.90
2023-02-25T03:35:36.649Z,99.90
2023-02-25T03:38:10.736Z,99.90
2023-02-25T03:40:40.216Z,99.90
2023-02-25T03:43:14.250Z,99.90
2023-02-25T03:45:43.397Z,99.90
2023-02-25T03:48:11.777Z,99.90
2023-02-25T03:50:47.085Z,99.90
2023-02-25T03:53:14.045Z,99.90
2023-02-25T03:55:50.777Z,99.90
2023-02-25T03:58:17.900Z,99.90
2023-02-25T04:00:47.225Z,99.90
2023-02-25T04:03:14.247Z,99.90
2023-02-25T04:05:41.070Z,99.90
2023-02-25T04:08:15.860Z,99.90
2023-02-25T04:10:43.931Z,99.90
2023-02-25T04:13:12.429Z,99.90
2023-02-25T04:15:39.315Z,99.90
2023-02-25T04:18:06.269Z,99.90
2023-02-25T04:20:34.072Z,99.90
2023-02-25T04:23:01.473Z,99.90
2023-02-25T04:25:28.517Z,99.90
2023-02-25T04:27:55.213Z,99.90
2023-02-25T04:30:21.863Z,99.90
2023-02-25T04:32:48.652Z,99.90
2023-02-25T04:35:15.549Z,99.90
2023-02-25T04:37:44.047Z,99.90
2023-02-25T04:40:15.748Z,99.90
2023-02-25T04:42:43.245Z,99.90
2023-02-25T04:45:11.391Z,99.90
2023-02-25T04:47:38.134Z,99.90
2023-02-25T04:50:06.909Z,99.90
2023-02-25T04:52:33.566Z,99.90
2023-02-25T04:55:00.229Z,99.90
2023-02-25T04:57:26.943Z,99.90
2023-02-25T04:59:53.624Z,99.90
2023-02-25T05:02:20.289Z,99.90
2023-02-25T05:04:47.063Z,99.90
2023-02-25T05:07:13.744Z,99.90
2023-02-25T05:09:40.433Z,99.90
2023-02-25T05:12:07.276Z,99.90
2023-02-25T05:14:34.914Z,99.90
2023-02-25T05:17:01.589Z,99.90
2023-02-25T05:19:28.314Z,99.90
2023-02-25T05:21:54.963Z,99.90
2023-02-25T05:24:23.524Z,99.90
2023-02-25T05:26:51.560Z,99.90
2023-02-25T05:29:18.297Z,99.90
2023-02-25T05:31:45.112Z,99.90
2023-02-25T05:34:12.124Z,99.90
2023-02-25T05:36:39.766Z,99.90
2023-02-25T05:39:06.538Z,99.90
2023-02-25T05:41:33.204Z,99.90
2023-02-25T05:43:59.925Z,99.90
2023-02-25T05:46:27.174Z,99.90
2023-02-25T05:48:54.304Z,99.90
2023-02-25T05:51:23.405Z,99.90
2023-02-25T05:53:51.819Z,99.90
2023-02-25T05:56:21.921Z,99.90
2023-02-25T05:58:49.128Z,99.90
2023-02-25T06:01:18.507Z,99.90
2023-02-25T06:03:47.191Z,99.90
2023-02-25T06:06:15.161Z,99.90
2023-02-25T06:08:44.708Z,99.90
2023-02-25T06:11:15.732Z,99.90
2023-02-25T06:13:42.512Z,99.90
2023-02-25T06:16:09.220Z,99.90
2023-02-25T06:18:39.694Z,99.90
2023-02-25T06:21:08.335Z,99.90
2023-02-25T06:23:36.556Z,99.90
2023-02-25T06:26:04.844Z,99.90
2023-02-25T06:28:31.791Z,99.90
2023-02-25T06:30:58.456Z,99.90
2023-02-25T06:33:25.246Z,99.90
2023-02-25T06:35:53.953Z,99.90
2023-02-25T06:38:21.417Z,99.90
2023-02-25T06:40:49.595Z,99.90
2023-02-25T06:43:17.501Z,99.90
2023-02-25T06:45:44.611Z,99.90
2023-02-25T06:48:11.311Z,99.90
2023-02-25T06:50:41.556Z,99.90
2023-02-25T06:53:09.052Z,99.90
2023-02-25T06:55:38.004Z,99.90
2023-02-25T06:58:04.672Z,99.90
2023-02-25T07:00:31.615Z,99.90
2023-02-25T07:02:58.339Z,99.90
2023-02-25T07:05:25.142Z,99.90
2023-02-25T07:07:51.779Z,99.90
2023-02-25T07:10:18.482Z,99.90
2023-02-25T07:12:45.140Z,99.90
2023-02-25T07:15:11.832Z,99.90
2023-02-25T07:17:38.571Z,99.90
2023-02-25T07:20:05.743Z,99.90
2023-02-25T07:22:32.417Z,99.90
2023-02-25T07:24:59.164Z,99.90
2023-02-25T07:27:25.938Z,99.90
2023-02-25T07:29:52.586Z,99.90
2023-02-25T07:32:19.351Z,99.90
2023-02-25T07:34:46.199Z,99.90
2023-02-25T07:37:12.843Z,99.90
2023-02-25T07:39:39.574Z,99.90
2023-02-25T07:42:06.272Z,99.90
2023-02-25T07:44:35.919Z,99.90
2023-02-25T07:47:02.606Z,99.90
2023-02-25T07:49:29.304Z,99.90
2023-02-25T07:51:55.942Z,99.90
2023-02-25T07:54:23.326Z,99.90
2023-02-25T07:56:51.375Z,99.90
2023-02-25T07:59:18.997Z,99.90
2023-02-25T08:01:45.704Z,99.90
2023-02-25T08:04:12.478Z,99.90
2023-02-25T08:06:40.997Z,99.90
2023-02-25T08:09:11.112Z,99.90
2023-02-25T08:11:39.410Z,99.90
2023-02-25T08:14:06.215Z,99.90
2023-02-25T08:16:33.635Z,99.80
2023-02-25T08:19:00.485Z,99.70
2023-02-25T08:21:27.302Z,99.90
2023-02-25T08:23:54.746Z,99.90
2023-02-25T08:26:23.071Z,99.80
2023-02-25T08:28:51.727Z,99.90
2023-02-25T08:31:19.573Z,99.90
2023-02-25T08:33:49.325Z,99.90
2023-02-25T08:36:20.447Z,99.90
2023-02-25T08:38:47.434Z,99.90
2023-02-25T08:41:14.374Z,99.90
2023-02-25T08:43:41.403Z,99.90
2023-02-25T08:46:09.761Z,99.90
2023-02-25T08:48:37.088Z,99.90
2023-02-25T08:51:08.957Z,99.90
2023-02-25T08:53:40.369Z,99.90
2023-02-25T08:56:09.033Z,99.90
2023-02-25T08:58:36.565Z,99.90
2023-02-25T09:01:12.999Z,99.90
2023-02-25T09:03:52.583Z,99.90
2023-02-25T09:06:27.967Z,99.90
2023-02-25T09:08:56.282Z,99.90
2023-02-25T09:11:24.065Z,99.90
2023-02-25T09:13:52.225Z,99.90
2023-02-25T09:16:20.015Z,99.90
2023-02-25T09:18:47.908Z,99.90
2023-02-25T09:21:15.167Z,99.90
2023-02-25T09:23:42.462Z,99.90
2023-02-25T09:26:09.266Z,99.90
2023-02-25T09:28:36.731Z,99.90
2023-02-25T09:31:04.183Z,99.90
2023-02-25T09:33:33.079Z,99.90
2023-02-25T09:36:08.402Z,99.90
2023-02-25T09:38:39.239Z,99.90
2023-02-25T09:41:24.633Z,99.90
2023-02-25T09:44:03.480Z,99.90
2023-02-25T09:46:32.258Z,99.90
2023-02-25T09:49:12.076Z,99.90
2023-02-25T09:51:45.679Z,99.90
2023-02-25T09:54:37.924Z,99.90
2023-02-25T09:57:06.157Z,99.90
2023-02-25T09:59:32.928Z,99.90
2023-02-25T10:02:16.338Z,99.90
2023-02-25T10:05:14.749Z,99.90
2023-02-25T10:07:56.688Z,99.90
2023-02-25T10:10:37.234Z,99.90
2023-02-25T10:13:22.650Z,99.90
2023-02-25T10:16:31.811Z,99.90
2023-02-25T10:19:31.437Z,99.90
2023-02-25T10:22:07.019Z,99.90
2023-02-25T10:24:45.268Z,99.90
2023-02-25T10:27:33.817Z,99.90
2023-02-25T10:30:06.840Z,99.90
2023-02-25T10:32:39.324Z,99.90
2023-02-25T10:35:18.614Z,99.90
2023-02-25T10:37:45.632Z,99.90
2023-02-25T10:40:16.261Z,99.90
2023-02-25T10:42:54.164Z,99.80
2023-02-25T10:45:32.261Z,99.20
2023-02-25T10:48:18.767Z,98.50
2023-02-25T10:51:01.010Z,98.50
2023-02-25T10:53:27.663Z,98.70
2023-02-25T10:55:55.012Z,98.10
2023-02-25T10:58:57.593Z,97.80
2023-02-25T11:01:24.922Z,97.40
2023-02-25T11:03:59.303Z,97.00
2023-02-25T11:06:37.043Z,97.60
2023-02-25T11:09:29.027Z,97.70
2023-02-25T11:11:58.733Z,97.20
2023-02-25T11:14:33.547Z,97.50
2023-02-25T11:17:09.172Z,97.20
2023-02-25T11:19:42.380Z,97.40
2023-02-25T11:22:29.654Z,98.00
2023-02-25T11:25:02.627Z,97.80
2023-02-25T11:27:41.455Z,97.60
2023-02-25T11:30:14.050Z,97.80
2023-02-25T11:32:55.674Z,98.50
2023-02-25T11:35:35.516Z,99.00
2023-02-25T11:38:31.943Z,99.50
2023-02-25T11:40:58.721Z,99.50
2023-02-25T11:43:32.035Z,99.40
2023-02-25T11:46:17.129Z,99.00
2023-02-25T11:49:05.848Z,98.70
2023-02-25T11:52:05.369Z,99.00
2023-02-25T11:54:46.985Z,97.90
2023-02-25T11:57:28.835Z,97.90
2023-02-25T12:00:11.410Z,97.60
2023-02-25T12:02:58.412Z,98.40
2023-02-25T12:05:53.098Z,98.30
2023-02-25T12:08:40.777Z,98.10
2023-02-25T12:11:10.148Z,97.50
2023-02-25T12:13:56.731Z,97.80
2023-02-25T12:17:00.277Z,97.50
2023-02-25T12:20:04.816Z,97.80
2023-02-25T12:22:45.172Z,98.20
2023-02-25T12:25:31.753Z,96.80
2023-02-25T12:28:27.630Z,96.20
2023-02-25T12:31:39.375Z,95.90
2023-02-25T12:34:18.255Z,95.60
2023-02-25T12:36:52.243Z,94.90
2023-02-25T12:39:46.752Z,94.00
2023-02-25T12:42:30.816Z,94.10
2023-02-25T12:45:06.190Z,93.50
2023-02-25T12:47:41.712Z,93.10
2023-02-25T12:50:28.002Z,93.20
2023-02-25T12:53:20.468Z,93.10
2023-02-25T12:55:47.133Z,93.00
2023-02-25T12:58:41.720Z,93.50
2023-02-25T13:01:37.156Z,93.80
2023-02-25T13:04:28.401Z,93.40
2023-02-25T13:07:14.388Z,93.90
2023-02-25T13:10:16.979Z,93.50
2023-02-25T13:13:22.027Z,93.30
2023-02-25T13:16:33.075Z,93.00
2023-02-25T13:19:18.584Z,92.70
2023-02-25T13:21:52.944Z,92.80
2023-02-25T13:25:13.382Z,93.40
2023-02-25T13:28:10.278Z,94.30
2023-02-25T13:31:03.757Z,94.90
2023-02-25T13:33:38.271Z,96.10
2023-02-25T13:36:31.172Z,97.20
2023-02-25T13:39:38.011Z,97.10
2023-02-25T13:42:25.984Z,97.00
2023-02-25T13:45:23.839Z,96.70
2023-02-25T13:48:14.797Z,96.60
2023-02-25T13:51:06.280Z,96.60
2023-02-25T13:54:14.553Z,96.50
2023-02-25T13:57:11.540Z,96.60
2023-02-25T14:00:04.141Z,97.20
2023-02-25T14:03:02.899Z,97.30
2023-02-25T14:06:08.386Z,97.10
2023-02-25T14:09:06.589Z,98.00
2023-02-25T14:12:11.550Z,99.40
2023-02-25T14:15:12.546Z,99.90
2023-02-25T14:17:48.187Z,99.90
2023-02-25T14:20:23.017Z,99.90
2023-02-25T14:23:00.814Z,99.90
2023-02-25T14:25:48.338Z,99.90
2023-02-25T14:28:42.176Z,99.90
2023-02-25T14:31:27.191Z,99.90
2023-02-25T14:34:19.157Z,99.90
2023-02-25T14:36:52.202Z,99.90
2023-02-25T14:39:28.945Z,99.90
2023-02-25T14:42:14.895Z,99.90
2023-02-25T14:45:10.235Z,99.90
2023-02-25T14:47:50.459Z,99.90
2023-02-25T14:50:32.183Z,99.90
2023-02-25T14:53:27.834Z,99.90
2023-02-25T14:56:15.745Z,99.90
2023-02-25T14:59:11.600Z,99.90
2023-02-25T15:02:04.379Z,99.90
2023-02-25T15:04:35.526Z,99.90
2023-02-25T15:07:08.720Z,99.90
2023-02-25T15:09:38.226Z,99.90
2023-02-25T15:12:13.408Z,99.90
2023-02-25T15:15:08.308Z,99.90
2023-02-25T15:18:01.299Z,99.90
2023-02-25T15:20:40.177Z,99.90
2023-02-25T15:23:09.930Z,99.90
2023-02-25T15:25:49.776Z,99.90
2023-02-25T15:28:31.541Z,99.90
2023-02-25T15:31:01.553Z,99.90
2023-02-25T15:33:41.468Z,99.90
2023-02-25T15:36:14.199Z,99.90
2023-02-25T15:38:41.113Z,99.90
2023-02-25T15:41:38.306Z,99.90
2023-02-25T15:44:08.029Z,99.90
2023-02-25T15:46:34.837Z,99.90
2023-02-25T15:49:25.474Z,99.90
2023-02-25T15:51:55.021Z,99.90
2023-02-25T15:54:30.684Z,99.90
2023-02-25T15:57:04.812Z,99.90
2023-02-25T15:59:47.953Z,99.90
2023-02-25T16:02:27.036Z,99.90
2023-02-25T16:04:58.048Z,99.90
2023-02-25T16:07:32.437Z,99.90
2023-02-25T16:10:03.484Z,99.90
2023-02-25T16:12:30.468Z,99.90
2023-02-25T16:14:58.921Z,99.90
2023-02-25T16:17:35.984Z,99.90
2023-02-25T16:20:22.573Z,99.90
2023-02-25T16:22:57.024Z,99.90
2023-02-25T16:25:34.518Z,99.90
2023-02-25T16:28:15.909Z,99.90
2023-02-25T16:30:59.198Z,99.90
2023-02-25T16:33:39.887Z,99.90
2023-02-25T16:36:41.638Z,99.90
2023-02-25T16:39:17.682Z,99.90
2023-02-25T16:41:44.964Z,99.90
2023-02-25T16:44:21.601Z,99.90
2023-02-25T16:46:51.580Z,99.90
2023-02-25T16:49:28.561Z,99.90
2023-02-25T16:51:56.047Z,99.90
2023-02-25T16:54:28.851Z,99.90
2023-02-25T16:57:00.004Z,99.90
2023-02-25T16:59:31.542Z,99.90
2023-02-25T17:02:02.718Z,99.90
2023-02-25T17:04:38.048Z,99.90
2023-02-25T17:07:12.667Z,99.90
2023-02-25T17:09:50.940Z,99.90
2023-02-25T17:12:45.460Z,99.90
2023-02-25T17:15:19.551Z,99.90
2023-02-25T17:17:48.938Z,99.90
2023-02-25T17:20:25.012Z,99.90
2023-02-25T17:22:52.351Z,99.90
2023-02-25T17:25:19.812Z,99.90
2023-02-25T17:27:49.718Z,99.90
2023-02-25T17:30:42.508Z,99.90
2023-02-25T17:33:28.132Z,99.90
2023-02-25T17:36:17.765Z,99.90
2023-02-25T17:38:45.465Z,99.90
2023-02-25T17:41:19.944Z,99.90
2023-02-25T17:43:46.772Z,99.90
2023-02-25T17:46:17.351Z,99.90
2023-02-25T17:48:51.844Z,99.90
2023-02-25T17:51:27.057Z,99.90
2023-02-25T17:54:27.091Z,99.90
2023-02-25T17:57:06.408Z,99.90
2023-02-25T17:59:39.318Z,99.90
2023-02-25T18:02:29.393Z,99.90
2023-02-25T18:05:18.333Z,99.90
2023-02-25T18:08:01.150Z,99.90
2023-02-25T18:10:30.777Z,99.90
2023-02-25T18:12:59.002Z,99.90
2023-02-25T18:15:30.758Z,99.90
2023-02-25T18:18:01.341Z,99.90
2023-02-25T18:20:42.204Z,99.90
2023-02-25T18:23:21.042Z,99.90
2023-02-25T18:26:15.442Z,99.90
2023-02-25T18:28:42.340Z,99.90
2023-02-25T18:31:09.809Z,99.90
2023-02-25T18:33:36.728Z,99.90
2023-02-25T18:36:07.822Z,99.90
2023-02-25T18:38:37.511Z,99.90
2023-02-25T18:41:07.918Z,99.90
2023-02-25T18:43:39.863Z,99.90
2023-02-25T18:46:06.589Z,99.90
2023-02-25T18:48:35.253Z,99.90
2023-02-25T18:51:03.130Z,99.90
2023-02-25T18:53:29.856Z,99.90
2023-02-25T18:55:57.866Z,99.90
2023-02-25T18:58:24.953Z,99.90
2023-02-25T19:00:56.887Z,99.90
2023-02-25T19:03:31.619Z,99.90
2023-02-25T19:05:58.970Z,99.90
2023-02-25T19:08:25.786Z,99.90
2023-02-25T19:10:53.663Z,99.90
2023-02-25T19:13:26.099Z,99.90
2023-02-25T19:15:52.819Z,99.90
2023-02-25T19:18:19.780Z,99.90
2023-02-25T19:20:46.565Z,99.90
2023-02-25T19:23:15.898Z,99.90
2023-02-25T19:25:43.861Z,99.90
2023-02-25T19:28:11.278Z,99.90
2023-02-25T19:30:41.374Z,99.90
2023-02-25T19:33:09.735Z,99.90
2023-02-25T19:35:39.546Z,99.90
2023-02-25T19:38:08.420Z,99.90
2023-02-25T19:40:36.425Z,99.90
2023-02-25T19:43:04.758Z,99.90
2023-02-25T19:45:32.267Z,99.90
2023-02-25T19:47:59.765Z,99.90
2023-02-25T19:50:26.773Z,99.90
2023-02-25T19:52:54.959Z,99.90
2023-02-25T19:55:22.635Z,99.90
2023-02-25T19:57:49.357Z,99.90
2023-02-25T20:00:22.605Z,99.90
2023-02-25T20:02:51.144Z,99.90
2023-02-25T20:05:17.945Z,99.90
2023-02-25T20:07:44.733Z,99.90
2023-02-25T20:10:13.591Z,99.90
2023-02-25T20:12:41.439Z,99.90
2023-02-25T20:15:09.489Z,99.90
2023-02-25T20:17:40.368Z,99.90
2023-02-25T20:20:08.373Z,99.90
2023-02-25T20:22:35.954Z,99.90
2023-02-25T20:25:03.235Z,99.90
2023-02-25T20:27:29.873Z,99.90
2023-02-25T20:29:56.648Z,99.90
2023-02-25T20:32:23.363Z,99.90
2023-02-25T20:34:50.194Z,99.90
2023-02-25T20:37:23.016Z,99.90
2023-02-25T20:39:58.342Z,99.90
2023-02-25T20:42:30.066Z,99.90
2023-02-25T20:44:58.187Z,99.30
2023-02-25T20:47:36.040Z,99.10
2023-02-25T20:50:04.193Z,99.30
2023-02-25T20:52:31.424Z,99.30
2023-02-25T20:54:58.225Z,99.80
2023-02-25T20:57:26.841Z,98.20
2023-02-25T20:59:54.066Z,98.40
2023-02-25T21:02:21.023Z,98.60
2023-02-25T21:04:48.128Z,97.90
2023-02-25T21:07:15.206Z,97.70
2023-02-25T21:09:42.086Z,98.10
2023-02-25T21:12:09.245Z,97.30
2023-02-25T21:14:36.134Z,97.70
2023-02-25T21:17:03.534Z,97.90
2023-02-25T21:19:30.271Z,98.20
2023-02-25T21:21:56.940Z,97.90
2023-02-25T21:24:23.874Z,97.80
2023-02-25T21:26:50.852Z,98.60
2023-02-25T21:29:17.891Z,98.80
2023-02-25T21:31:45.423Z,98.90
2023-02-25T21:34:13.905Z,99.20
2023-02-25T21:36:41.729Z,98.90
2023-02-25T21:39:09.675Z,99.20
2023-02-25T21:41:37.945Z,99.60
2023-02-25T21:44:04.956Z,99.90
2023-02-25T21:46:31.723Z,99.90
2023-02-25T21:48:59.447Z,99.90
2023-02-25T21:51:27.660Z,99.90
2023-02-25T21:53:59.474Z,99.90
2023-02-25T21:56:27.153Z,99.90
2023-02-25T21:59:02.044Z,99.90
2023-02-25T22:01:34.425Z,99.90
2023-02-25T22:04:01.348Z,99.90
2023-02-25T22:06:28.610Z,99.90
2023-02-25T22:08:56.524Z,99.90
2023-02-25T22:11:29.080Z,99.90
2023-02-25T22:13:55.863Z,99.90
2023-02-25T22:16:23.586Z,99.90
2023-02-25T22:18:51.131Z,99.90
2023-02-25T22:21:24.025Z,99.90
2023-02-25T22:23:53.277Z,99.90
2023-02-25T22:26:23.541Z,99.90
2023-02-25T22:28:54.833Z,99.90
2023-02-25T22:31:22.136Z,99.90
2023-02-25T22:33:49.043Z,99.90
2023-02-25T22:36:17.433Z,99.90
2023-02-25T22:38:45.590Z,99.90
2023-02-25T22:41:18.629Z,99.90
2023-02-25T22:43:46.184Z,99.90
2023-02-25T22:46:15.757Z,99.90
2023-02-25T22:48:44.888Z,99.90
2023-02-25T22:51:12.513Z,99.90
2023-02-25T22:53:40.611Z,99.90
2023-02-25T22:56:09.317Z,99.90
2023-02-25T22:58:38.740Z,99.90
2023-02-25T23:01:06.671Z,99.90
2023-02-25T23:03:33.439Z,99.90
2023-02-25T23:06:00.600Z,99.90
2023-02-25T23:08:27.443Z,99.90
2023-02-25T23:10:54.212Z,99.90
2023-02-25T23:13:21.268Z,99.90
2023-02-25T23:15:48.151Z,99.90
2023-02-25T23:18:15.595Z,99.90
2023-02-25T23:20:42.684Z,99.90
2023-02-25T23:23:09.537Z,99.90
2023-02-25T23:25:39.706Z,99.90
2023-02-25T23:28:08.306Z,99.90
2023-02-25T23:30:38.985Z,99.90
2023-02-25T23:33:06.303Z,99.90
2023-02-25T23:35:33.827Z,99.90
2023-02-25T23:38:00.781Z,99.90
2023-02-25T23:40:28.806Z,99.90
2023-02-25T23:42:55.750Z,99.90
2023-02-25T23:45:22.696Z,99.90
2023-02-25T23:47:49.538Z,99.90
2023-02-25T23:50:16.876Z,99.90
2023-02-25T23:52:44.783Z,99.90
2023-02-25T23:55:12.355Z,99.90
2023-02-25T23:57:39.276Z,99.90
